createdAt,value
2017-04-24T00:09:02.725Z,0
2017-04-24T00:19:02.751Z,0
2017-04-24T00:29:02.718Z,0
2017-04-24T00:39:02.722Z,0
2017-04-24T00:49:02.809Z,0
2017-04-24T00:59:02.790Z,0
2017-04-24T01:09:02.823Z,0
2017-04-24T01:19:02.761Z,0
2017-04-24T01:29:02.745Z,0
2017-04-24T01:39:02.851Z,0
2017-04-24T01:49:02.787Z,0
2017-04-24T01:59:02.835Z,0
2017-04-24T02:09:02.825Z,0
2017-04-24T02:19:02.870Z,0
2017-04-24T02:29:02.826Z,0
2017-04-24T02:39:02.906Z,0
2017-04-24T02:49:02.857Z,0
2017-04-24T02:59:02.942Z,0
2017-04-24T03:09:02.838Z,0
2017-04-24T03:19:02.961Z,0
2017-04-24T03:29:02.832Z,0
2017-04-24T03:39:02.842Z,0
2017-04-24T03:49:02.931Z,0
2017-04-24T03:59:02.905Z,0
2017-04-24T04:09:02.886Z,5
2017-04-24T04:19:02.896Z,10
2017-04-24T04:29:03.012Z,25
2017-04-24T04:39:02.946Z,40
2017-04-24T04:49:02.892Z,60
2017-04-24T04:59:02.915Z,75
2017-04-24T05:09:03.025Z,80
2017-04-24T05:19:02.913Z,80
2017-04-24T05:29:02.909Z,100
2017-04-24T05:39:03.043Z,135
2017-04-24T05:49:02.990Z,175
2017-04-24T05:59:12.777Z,180
2017-04-24T06:09:02.979Z,140
2017-04-24T06:19:03.037Z,110
2017-04-24T06:29:03.015Z,205
2017-04-24T06:39:03.008Z,205
2017-04-24T06:49:03.035Z,220
2017-04-24T06:59:03.102Z,180
2017-04-24T07:09:03.093Z,260
2017-04-24T07:19:03.152Z,210
2017-04-24T07:29:03.050Z,210
2017-04-24T07:39:03.087Z,230
2017-04-24T07:49:03.080Z,440
2017-04-24T07:59:03.056Z,345
2017-04-24T08:09:03.139Z,435
2017-04-24T08:19:03.094Z,505
2017-04-24T08:29:03.090Z,505
2017-04-24T08:39:03.545Z,530
2017-04-24T08:49:03.205Z,395
2017-04-24T08:59:03.142Z,355
2017-04-24T09:09:03.223Z,265
2017-04-24T09:19:03.216Z,280
2017-04-24T09:29:03.246Z,240
2017-04-24T09:39:03.191Z,220
2017-04-24T09:49:03.176Z,240
2017-04-24T09:59:03.183Z,230
2017-04-24T10:09:03.222Z,365
2017-04-24T10:19:03.542Z,425
2017-04-24T10:29:03.255Z,475
2017-04-24T10:39:03.226Z,435
2017-04-24T10:49:03.305Z,415
2017-04-24T10:59:03.323Z,290
2017-04-24T11:09:03.335Z,315
2017-04-24T11:19:03.215Z,300
2017-04-24T11:29:03.399Z,295
2017-04-24T11:39:03.221Z,215
2017-04-24T11:49:03.224Z,225
2017-04-24T11:59:03.285Z,265
2017-04-24T12:09:03.244Z,270
2017-04-24T12:19:03.313Z,275
2017-04-24T12:29:03.219Z,280
2017-04-24T12:39:03.319Z,385
2017-04-24T12:49:08.092Z,325
2017-04-24T12:59:48.280Z,360
2017-04-24T13:09:08.045Z,315
2017-04-24T13:19:09.996Z,190
2017-04-24T13:29:10.286Z,130
2017-04-24T13:39:09.700Z,110
2017-04-24T13:49:08.346Z,75
2017-04-24T13:59:08.053Z,60
2017-04-24T14:09:03.202Z,125
2017-04-24T14:19:03.307Z,320
2017-04-24T14:29:03.319Z,275
2017-04-24T14:39:04.351Z,225
2017-04-24T14:49:03.377Z,130
2017-04-24T14:59:03.272Z,245
2017-04-24T15:09:03.179Z,250
2017-04-24T15:19:03.273Z,245
2017-04-24T15:29:03.234Z,165
2017-04-24T15:39:03.309Z,85
2017-04-24T15:49:03.217Z,65
2017-04-24T15:59:03.202Z,25
2017-04-24T16:09:03.284Z,10
2017-04-24T16:19:03.237Z,15
2017-04-24T16:29:03.264Z,10
2017-04-24T16:39:03.226Z,25
2017-04-24T16:49:03.324Z,55
2017-04-24T16:59:03.285Z,50
2017-04-24T17:09:03.291Z,15
2017-04-24T17:19:03.317Z,15
2017-04-24T17:29:03.222Z,25
2017-04-24T17:39:03.246Z,25
2017-04-24T17:49:03.295Z,40
2017-04-24T17:59:03.266Z,35
2017-04-24T18:09:03.296Z,15
2017-04-24T18:19:03.239Z,5
2017-04-24T18:29:03.213Z,0
2017-04-24T18:39:03.230Z,0
2017-04-24T18:49:03.317Z,0
2017-04-24T18:59:03.257Z,0
2017-04-24T19:09:03.210Z,0
2017-04-24T19:19:03.310Z,0
2017-04-24T19:29:03.220Z,0
2017-04-24T19:39:03.331Z,0
2017-04-24T19:49:03.185Z,0
2017-04-24T19:59:03.272Z,0
2017-04-24T20:09:03.211Z,0
2017-04-24T20:19:03.230Z,0
2017-04-24T20:29:03.277Z,0
2017-04-24T20:39:03.265Z,0
2017-04-24T20:49:03.383Z,0
2017-04-24T20:59:03.252Z,0
2017-04-24T21:09:03.239Z,0
2017-04-24T21:19:03.283Z,0
2017-04-24T21:29:03.248Z,0
2017-04-24T21:39:03.209Z,0
2017-04-24T21:49:03.421Z,0
2017-04-24T21:59:03.398Z,0
2017-04-24T22:09:03.275Z,0
2017-04-24T22:19:03.178Z,0
2017-04-24T22:29:03.388Z,0
2017-04-24T22:39:03.227Z,0
2017-04-24T22:49:04.197Z,0
2017-04-24T22:59:03.213Z,0
2017-04-24T23:09:03.252Z,0
2017-04-24T23:19:03.171Z,0
2017-04-24T23:29:03.195Z,0
2017-04-24T23:39:03.213Z,0
2017-04-24T23:49:03.325Z,0
2017-04-24T23:59:03.305Z,0
